createdAt,value
2018-12-03T00:03:05.238Z,32.87
2018-12-03T00:09:00.236Z,30.56
2018-12-03T00:14:55.269Z,31.68
2018-12-03T00:20:50.276Z,29.01
2018-12-03T00:26:45.237Z,26.35
2018-12-03T00:32:40.317Z,25.7
2018-12-03T00:38:35.260Z,30
2018-12-03T00:44:30.254Z,32.65
2018-12-03T00:50:25.257Z,33.69
2018-12-03T00:56:20.250Z,31.53
2018-12-03T01:02:15.263Z,31.45
2018-12-03T01:08:10.284Z,27.4
2018-12-03T01:14:06.372Z,24.69
2018-12-03T01:20:00.324Z,21.65
2018-12-03T01:25:55.278Z,20.23
2018-12-03T01:31:50.295Z,19.05
2018-12-03T01:37:45.304Z,19.96
2018-12-03T01:43:40.304Z,18.47
2018-12-03T01:49:35.345Z,19.41
2018-12-03T01:55:30.344Z,19.27
2018-12-03T02:01:25.278Z,19.81
2018-12-03T02:07:20.293Z,19.53
2018-12-03T02:13:15.291Z,18.65
2018-12-03T02:19:10.307Z,18.95
2018-12-03T02:25:05.345Z,18.04
2018-12-03T02:31:00.320Z,18.33
2018-12-03T02:36:55.310Z,17.99
2018-12-03T02:42:50.333Z,17.7
2018-12-03T02:48:45.327Z,17.24
2018-12-03T02:54:40.339Z,16.9
2018-12-03T03:00:35.332Z,16.72
2018-12-03T03:06:30.323Z,16.52
2018-12-03T03:12:25.337Z,15.99
2018-12-03T03:18:20.325Z,17.71
2018-12-03T03:24:15.333Z,16.39
2018-12-03T03:30:10.366Z,16.27
2018-12-03T03:36:05.339Z,16.06
2018-12-03T03:42:00.364Z,16.68
2018-12-03T03:47:55.354Z,16.21
2018-12-03T03:53:50.396Z,16.13
2018-12-03T03:59:45.415Z,16.39
2018-12-03T04:05:40.366Z,17.31
2018-12-03T04:11:35.368Z,15.87
2018-12-03T04:17:30.372Z,16.22
2018-12-03T04:23:25.367Z,19.94
2018-12-03T04:29:20.381Z,15.35
2018-12-03T04:35:15.364Z,15.37
2018-12-03T04:41:10.380Z,15.32
2018-12-03T04:47:05.397Z,15.59
2018-12-03T04:53:00.382Z,15.24
2018-12-03T04:58:55.439Z,14.75
2018-12-03T05:04:50.384Z,15.5
2018-12-03T05:10:45.400Z,13.68
2018-12-03T05:16:40.406Z,14.28
2018-12-03T05:22:35.403Z,14.49
2018-12-03T05:28:30.438Z,14.89
2018-12-03T05:34:25.422Z,14.93
2018-12-03T05:40:20.408Z,14.51
2018-12-03T05:46:15.416Z,14.44
2018-12-03T05:52:10.409Z,14.21
2018-12-03T05:58:05.468Z,12.53
2018-12-03T06:04:00.436Z,12.23
2018-12-03T06:09:55.431Z,12
2018-12-03T06:15:50.423Z,11.53
2018-12-03T06:21:45.430Z,11.53
2018-12-03T06:27:40.480Z,9.94
2018-12-03T06:33:35.436Z,9.82
2018-12-03T06:39:30.444Z,9.85
2018-12-03T06:45:25.458Z,9.91
2018-12-03T06:51:20.485Z,8.96
2018-12-03T06:57:15.452Z,9.65
2018-12-03T07:03:10.460Z,10.03
2018-12-03T07:09:05.452Z,12.63
2018-12-03T07:15:00.471Z,10.51
2018-12-03T07:20:55.447Z,10.38
2018-12-03T07:26:50.478Z,9.55
2018-12-03T07:32:45.487Z,8.6
2018-12-03T07:38:40.467Z,7.92
2018-12-03T07:44:35.464Z,19.77
2018-12-03T07:50:30.482Z,9.24
2018-12-03T08:02:20.479Z,8.75
2018-12-03T08:02:20.495Z,11.75
2018-12-03T08:08:15.500Z,8.27
2018-12-03T08:14:10.483Z,8.19
2018-12-03T08:20:05.476Z,6.7
2018-12-03T08:26:00.490Z,5.86
2018-12-03T08:31:55.511Z,5.23
2018-12-03T08:37:50.499Z,7.15
2018-12-03T08:43:45.518Z,7.61
2018-12-03T08:49:40.525Z,6.77
2018-12-03T08:55:35.510Z,8.46
2018-12-03T09:01:30.507Z,6.32
2018-12-03T09:07:25.550Z,5.65
2018-12-03T09:13:20.510Z,4.79
2018-12-03T09:19:15.537Z,4.32
2018-12-03T09:25:10.552Z,15.07
2018-12-03T09:31:05.527Z,5.61
2018-12-03T09:37:00.513Z,2.53
2018-12-03T09:42:55.533Z,3.17
2018-12-03T09:48:50.527Z,6.27
2018-12-03T09:54:45.549Z,4.57
2018-12-03T10:00:40.546Z,8.54
2018-12-03T10:06:35.560Z,6.83
2018-12-03T10:12:30.651Z,6.07
2018-12-03T10:18:25.586Z,5.61
2018-12-03T10:24:20.550Z,5.98
2018-12-03T10:30:15.564Z,5.19
2018-12-03T10:36:10.563Z,6.06
2018-12-03T10:42:05.571Z,7.91
2018-12-03T10:48:00.580Z,9.38
2018-12-03T10:53:55.554Z,12.15
2018-12-03T10:59:50.573Z,6.79
2018-12-03T11:05:45.595Z,11.2
2018-12-03T11:11:40.590Z,10.77
2018-12-03T11:17:35.564Z,10.67
2018-12-03T11:23:34.426Z,11.1
2018-12-03T11:29:25.615Z,8.81
2018-12-03T11:35:20.626Z,10.81
2018-12-03T11:41:15.572Z,14.15
2018-12-03T11:47:10.590Z,18.53
2018-12-03T11:53:05.631Z,19.18
2018-12-03T11:59:00.595Z,21.81
2018-12-03T12:04:55.607Z,17.77
2018-12-03T12:10:50.610Z,13.07
2018-12-03T12:16:45.594Z,14.67
2018-12-03T12:22:40.613Z,13.18
2018-12-03T12:28:38.143Z,12.58
2018-12-03T12:34:30.639Z,10.62
2018-12-03T12:40:25.619Z,7.83
2018-12-03T12:46:20.623Z,6.88
2018-12-03T12:52:15.620Z,9.63
2018-12-03T12:58:10.633Z,8.65
2018-12-03T13:04:05.659Z,9.6
2018-12-03T13:10:00.658Z,12.06
2018-12-03T13:15:55.679Z,12.31
2018-12-03T13:21:50.649Z,16.01
2018-12-03T13:27:45.694Z,16.38
2018-12-03T13:33:40.636Z,19.21
2018-12-03T13:39:35.693Z,23.83
2018-12-03T13:45:30.660Z,24.05
2018-12-03T13:51:25.667Z,23.88
2018-12-03T13:57:20.663Z,15.38
2018-12-03T14:03:15.678Z,21.97
2018-12-03T14:09:10.662Z,22.48
2018-12-03T14:15:05.693Z,21.28
2018-12-03T14:21:00.679Z,22.47
2018-12-03T14:26:55.676Z,25.08
2018-12-03T14:32:50.694Z,26.97
2018-12-03T14:38:45.659Z,26.26
2018-12-03T14:44:40.678Z,24.2
2018-12-03T14:50:35.681Z,27.2
2018-12-03T14:56:30.735Z,25.4
2018-12-03T15:02:25.699Z,26.81
2018-12-03T15:08:20.687Z,25.81
2018-12-03T15:14:15.719Z,25.82
2018-12-03T15:20:10.709Z,26.16
2018-12-03T15:26:05.704Z,26.36
2018-12-03T15:32:00.707Z,25.83
2018-12-03T15:37:55.717Z,25.75
2018-12-03T15:43:50.734Z,27.63
2018-12-03T15:49:45.705Z,29.13
2018-12-03T15:55:40.706Z,25.28
2018-12-03T16:01:35.733Z,25.3
2018-12-03T16:07:30.731Z,30.63
2018-12-03T16:13:25.723Z,44.67
2018-12-03T16:19:20.734Z,41.17
2018-12-03T16:25:15.788Z,50.89
2018-12-03T16:31:10.785Z,58.11
2018-12-03T16:37:05.730Z,52.33
2018-12-03T16:43:00.779Z,39.7
2018-12-03T16:48:55.768Z,48.73
2018-12-03T16:54:50.771Z,55.75
2018-12-03T17:00:45.755Z,47.76
2018-12-03T17:06:40.753Z,52.67
2018-12-03T17:12:35.760Z,44.13
2018-12-03T17:18:30.757Z,39.34
2018-12-03T17:24:25.841Z,40.25
2018-12-03T17:30:20.757Z,41.35
2018-12-03T17:36:15.751Z,41.78
2018-12-03T17:42:10.803Z,39.18
2018-12-03T17:48:05.791Z,37.54
2018-12-03T17:54:00.820Z,38.15
2018-12-03T17:59:55.835Z,33.18
2018-12-03T18:05:50.806Z,19.22
2018-12-03T18:11:45.810Z,33.8
2018-12-03T18:17:40.794Z,32.6
2018-12-03T18:23:35.791Z,35.32
2018-12-03T18:29:30.788Z,32.11
2018-12-03T18:35:25.803Z,45.03
2018-12-03T18:41:20.815Z,43.3
2018-12-03T18:47:15.819Z,46.03
2018-12-03T18:53:10.818Z,54
2018-12-03T18:59:05.850Z,58.23
2018-12-03T19:05:00.831Z,60.39
2018-12-03T19:10:55.821Z,59.51
2018-12-03T19:16:50.834Z,65.99
2018-12-03T19:22:45.865Z,62.62
2018-12-03T19:28:40.847Z,55.4
2018-12-03T19:34:35.844Z,46.2
2018-12-03T19:40:30.839Z,47.97
2018-12-03T19:46:25.845Z,41.21
2018-12-03T19:52:20.852Z,40.14
2018-12-03T19:58:15.870Z,39.87
2018-12-03T20:04:10.863Z,46.63
2018-12-03T20:10:05.867Z,55.01
2018-12-03T20:16:00.875Z,51.52
2018-12-03T20:21:55.851Z,48.97
2018-12-03T20:27:50.914Z,43.05
2018-12-03T20:33:45.855Z,40.52
2018-12-03T20:39:40.877Z,43.73
2018-12-03T20:45:35.876Z,52.84
2018-12-03T20:51:30.895Z,50.57
2018-12-03T20:57:25.915Z,57.41
2018-12-03T21:03:20.897Z,53.73
2018-12-03T21:09:15.896Z,58.07
2018-12-03T21:15:10.904Z,55.85
2018-12-03T21:21:05.889Z,56.03
2018-12-03T21:27:00.897Z,54.79
2018-12-03T21:32:55.906Z,47.13
2018-12-03T21:38:50.887Z,42.29
2018-12-03T21:44:45.914Z,44.81
2018-12-03T21:50:40.918Z,43.58
2018-12-03T21:56:35.914Z,44.8
2018-12-03T22:02:30.989Z,45.11
2018-12-03T22:08:26.004Z,45.87
2018-12-03T22:14:20.923Z,41.18
2018-12-03T22:20:15.964Z,34.18
2018-12-03T22:26:10.931Z,34.23
2018-12-03T22:32:05.974Z,35.46
2018-12-03T22:38:00.929Z,35.84
2018-12-03T22:43:55.930Z,34.55
2018-12-03T22:49:50.939Z,37.11
2018-12-03T22:55:45.933Z,51.9
2018-12-03T23:01:40.964Z,50.94
2018-12-03T23:07:35.946Z,46.82
2018-12-03T23:13:30.965Z,48.35
2018-12-03T23:24:08.294Z,53.93
2018-12-03T23:30:03.345Z,53.04
2018-12-03T23:35:58.307Z,57.8
2018-12-03T23:41:53.303Z,58.35
2018-12-03T23:47:48.351Z,55.9
2018-12-03T23:53:43.376Z,61.16
2018-12-03T23:59:38.345Z,62.55
